Time;durP1;ratioP1;P1;durP2;ratioP2;P2;SDS_P1;SDS_P2;PMS_P1;PMS_P2;Temp;Humidity;BMP_temperature;BMP_pressure;BME280_temperature;BME280_humidity;BME280_pressure;Samples;Min_cycle;Max_cycle;Signal;HPM_P1;HPM_P2
2024/03/24 00:00:00;;;;;;;;;;;;;;;21.83;33.26;100014.59;102709;1295;62261;-80
2024/03/24 00:02:26;;;;;;;;;;;;;;;21.83;33.21;100014.42;102692;1295;62184;-80
2024/03/24 00:04:52;;;;;;;;;;;;;;;21.82;33.19;100007.46;102704;1295;62295;-81
2024/03/24 00:07:17;;;;;;;;;;;;;;;21.82;33.29;100000.90;102775;1292;62242;-79
2024/03/24 00:09:43;;;;;;;;;;;;;;;21.82;33.23;100000.35;102693;1295;62123;-78
2024/03/24 00:12:10;;;;;;;;;;;;;;;21.81;33.17;99995.05;102867;1297;62192;-78
2024/03/24 00:14:36;;;;;;;;;;;;;;;21.81;33.30;99990.95;102695;1298;62209;-80
2024/03/24 00:17:01;;;;;;;;;;;;;;;21.81;33.26;99987.19;102655;1297;63335;-80
2024/03/24 00:19:28;;;;;;;;;;;;;;;21.81;33.24;99984.15;102730;1293;62217;-80
2024/03/24 00:21:54;;;;;;;;;;;;;;;21.81;33.18;99983.06;102678;1291;62209;-79
2024/03/24 00:24:20;;;;;;;;;;;;;;;21.81;33.30;99985.77;102688;1303;62292;-79
2024/03/24 00:26:45;;;;;;;;;;;;;;;21.80;33.15;99979.20;102779;1298;63465;-79
2024/03/24 00:29:12;;;;;;;;;;;;;;;21.79;33.13;99979.08;102715;1295;76218;-79
2024/03/24 00:31:37;;;;;;;;;;;;;;;21.80;33.23;99976.18;102686;1295;62281;-78
2024/03/24 00:34:03;;;;;;;;;;;;;;;21.80;33.30;99974.42;102697;1292;62095;-80
2024/03/24 00:36:29;;;;;;;;;;;;;;;21.79;33.22;99972.84;102716;1296;62247;-79
2024/03/24 00:38:54;;;;;;;;;;;;;;;21.79;33.20;99967.16;102730;1295;63480;-80
2024/03/24 00:41:20;;;;;;;;;;;;;;;21.79;33.20;99964.30;102700;1296;76214;-80
2024/03/24 00:43:45;;;;;;;;;;;;;;;21.78;33.04;99960.58;102750;1292;63310;-81
2024/03/24 00:46:11;;;;;;;;;;;;;;;21.78;33.13;99956.47;102801;1295;63345;-78
2024/03/24 00:48:37;;;;;;;;;;;;;;;21.78;33.22;99958.11;102684;1293;63497;-80
2024/03/24 00:51:02;;;;;;;;;;;;;;;21.78;33.16;99951.84;102639;1308;62212;-78
2024/03/24 00:53:28;;;;;;;;;;;;;;;21.77;33.14;99951.91;102780;1293;75295;-79
2024/03/24 00:55:54;;;;;;;;;;;;;;;21.77;33.05;99950.98;102732;1295;63421;-78
2024/03/24 00:58:19;;;;;;;;;;;;;;;21.76;33.15;99951.58;102713;1295;62208;-79
2024/03/24 01:00:46;;;;;;;;;;;;;;;21.76;33.01;99948.89;102624;1295;62172;-79
2024/03/24 01:03:11;;;;;;;;;;;;;;;21.76;33.16;99948.92;102742;1294;63383;-79
2024/03/24 01:05:37;;;;;;;;;;;;;;;21.75;33.02;99947.71;102693;1295;62312;-79
2024/03/24 01:08:03;;;;;;;;;;;;;;;21.76;32.97;99950.73;102674;1295;62181;-78
2024/03/24 01:10:29;;;;;;;;;;;;;;;21.75;33.06;99945.77;102513;1298;62213;-80
2024/03/24 01:12:54;;;;;;;;;;;;;;;21.75;32.95;99941.10;102542;1296;63471;-79
2024/03/24 01:15:20;;;;;;;;;;;;;;;21.75;32.94;99938.09;102455;1295;62385;-80
2024/03/24 01:17:46;;;;;;;;;;;;;;;21.74;32.87;99938.11;102569;1297;62272;-80
2024/03/24 01:20:12;;;;;;;;;;;;;;;21.74;33.01;99934.39;102493;1301;62285;-81
2024/03/24 01:22:38;;;;;;;;;;;;;;;21.74;33.03;99931.91;102699;1298;62336;-79
2024/03/24 01:25:05;;;;;;;;;;;;;;;21.74;33.12;99932.45;102454;1301;62223;-79
2024/03/24 01:27:30;;;;;;;;;;;;;;;21.74;32.96;99928.52;102584;1299;63160;-78
2024/03/24 01:29:56;;;;;;;;;;;;;;;21.73;33.01;99926.04;102543;1299;62320;-78
2024/03/24 01:32:21;;;;;;;;;;;;;;;21.73;32.85;99925.70;102606;1295;62224;-79
2024/03/24 01:34:47;;;;;;;;;;;;;;;21.73;33.00;99923.61;102592;1296;63227;-80
2024/03/24 01:37:13;;;;;;;;;;;;;;;21.72;32.88;99923.60;102638;1297;62459;-79
2024/03/24 01:39:41;;;;;;;;;;;;;;;21.72;32.85;99922.75;102643;1297;76156;-79
2024/03/24 01:42:07;;;;;;;;;;;;;;;21.72;32.95;99928.63;102608;1295;62349;-79
2024/03/24 01:44:32;;;;;;;;;;;;;;;21.72;32.94;99931.35;102707;1297;62344;-80
2024/03/24 01:46:58;;;;;;;;;;;;;;;21.72;32.92;99924.17;102759;1292;63352;-79
2024/03/24 01:49:23;;;;;;;;;;;;;;;21.71;33.15;99920.52;102703;1294;62124;-81
2024/03/24 01:51:49;;;;;;;;;;;;;;;21.71;32.90;99916.23;102710;1295;62203;-79
2024/03/24 01:54:15;;;;;;;;;;;;;;;21.71;33.01;99914.64;102647;1293;62152;-79
2024/03/24 01:56:41;;;;;;;;;;;;;;;21.71;33.05;99914.80;102694;1293;63533;-79
2024/03/24 01:59:06;;;;;;;;;;;;;;;21.71;32.88;99911.07;102662;1295;62605;-80
2024/03/24 02:01:32;;;;;;;;;;;;;;;21.70;32.91;99912.88;102681;1292;62118;-80
2024/03/24 02:03:58;;;;;;;;;;;;;;;21.70;32.84;99912.71;102728;1290;62213;-79
2024/03/24 02:06:23;;;;;;;;;;;;;;;21.70;32.97;99910.78;102769;1292;62293;-79
2024/03/24 02:08:49;;;;;;;;;;;;;;;21.70;32.93;99911.86;102727;1292;63436;-79
2024/03/24 02:11:15;;;;;;;;;;;;;;;21.70;32.95;99911.14;102676;1292;62676;-80
2024/03/24 02:13:40;;;;;;;;;;;;;;;21.69;33.04;99914.20;102728;1292;62264;-79
2024/03/24 02:16:07;;;;;;;;;;;;;;;21.69;32.95;99912.12;102774;1290;62499;-79
2024/03/24 02:18:33;;;;;;;;;;;;;;;21.69;32.94;99913.36;102642;1292;62140;-80
2024/03/24 02:20:59;;;;;;;;;;;;;;;21.69;32.93;99911.58;102651;1298;62274;-79
2024/03/24 02:23:24;;;;;;;;;;;;;;;21.69;32.85;99914.44;102255;1292;796344;-81
2024/03/24 02:25:50;;;;;;;;;;;;;;;21.69;32.87;99912.69;102679;1294;76605;-81
2024/03/24 02:28:16;;;;;;;;;;;;;;;21.68;32.83;99909.85;102725;1292;62753;-80
2024/03/24 02:30:44;;;;;;;;;;;;;;;21.68;32.81;99904.68;102741;1293;62170;-80
2024/03/24 02:33:10;;;;;;;;;;;;;;;21.68;32.86;99896.80;102719;1292;72362;-78
2024/03/24 02:35:37;;;;;;;;;;;;;;;21.68;32.82;99890.55;102638;1297;63325;-82
2024/03/24 02:38:03;;;;;;;;;;;;;;;21.68;32.97;99883.77;102685;1292;62193;-81
2024/03/24 02:40:28;;;;;;;;;;;;;;;21.67;32.88;99878.42;102693;1293;62243;-78
2024/03/24 02:42:54;;;;;;;;;;;;;;;21.67;32.75;99878.42;102671;1291;62863;-78
2024/03/24 02:45:20;;;;;;;;;;;;;;;21.67;32.96;99881.34;102780;1295;62156;-78
2024/03/24 02:47:45;;;;;;;;;;;;;;;21.67;32.90;99884.02;102743;1294;62232;-80
2024/03/24 02:50:11;;;;;;;;;;;;;;;21.67;32.91;99877.75;102705;1294;62165;-79
2024/03/24 02:52:36;;;;;;;;;;;;;;;21.66;32.75;99880.48;102737;1292;63224;-78
2024/03/24 02:55:02;;;;;;;;;;;;;;;21.66;32.77;99879.46;102697;1292;63310;-79
2024/03/24 02:57:28;;;;;;;;;;;;;;;21.66;32.80;99883.40;102658;1297;63421;-81
2024/03/24 02:59:53;;;;;;;;;;;;;;;21.65;32.88;99874.13;102698;1297;62216;-80
2024/03/24 03:02:19;;;;;;;;;;;;;;;21.65;32.86;99864.98;102686;1292;62115;-78
2024/03/24 03:04:45;;;;;;;;;;;;;;;21.65;32.81;99855.52;102680;1297;62126;-79
2024/03/24 03:07:11;;;;;;;;;;;;;;;21.65;32.77;99849.11;102725;1294;62210;-78
2024/03/24 03:09:36;;;;;;;;;;;;;;;21.64;32.71;99847.70;102751;1294;63549;-81
2024/03/24 03:12:02;;;;;;;;;;;;;;;21.65;32.86;99843.40;102661;1291;63517;-79
2024/03/24 03:14:27;;;;;;;;;;;;;;;21.64;32.77;99842.14;102755;1293;62678;-79
2024/03/24 03:16:53;;;;;;;;;;;;;;;21.64;32.82;99838.46;102688;1292;62098;-79
2024/03/24 03:19:19;;;;;;;;;;;;;;;21.64;32.92;99840.23;102596;1292;62222;-79
2024/03/24 03:21:44;;;;;;;;;;;;;;;21.63;32.78;99842.23;102692;1297;62309;-79
2024/03/24 03:24:10;;;;;;;;;;;;;;;21.63;32.87;99835.44;102708;1292;63404;-81
2024/03/24 03:26:37;;;;;;;;;;;;;;;21.63;32.77;99838.11;102732;1292;63366;-79
2024/03/24 03:29:03;;;;;;;;;;;;;;;21.63;32.77;99841.54;102739;1291;63433;-78
2024/03/24 03:31:28;;;;;;;;;;;;;;;21.63;32.73;99851.45;102753;1293;63299;-78
2024/03/24 03:33:54;;;;;;;;;;;;;;;21.62;32.69;99863.48;102730;1294;63236;-79
2024/03/24 03:36:20;;;;;;;;;;;;;;;21.63;32.67;99863.63;102687;1292;62195;-80
2024/03/24 03:38:45;;;;;;;;;;;;;;;21.63;32.80;99863.27;102705;1294;62599;-79
2024/03/24 03:41:11;;;;;;;;;;;;;;;21.62;32.77;99857.41;102671;1293;63179;-78
2024/03/24 03:43:36;;;;;;;;;;;;;;;21.62;32.75;99856.52;102708;1294;62167;-81
2024/03/24 03:46:02;;;;;;;;;;;;;;;21.62;32.74;99856.52;102670;1292;62306;-78
2024/03/24 03:48:28;;;;;;;;;;;;;;;21.61;32.72;99854.97;102747;1295;62200;-79
2024/03/24 03:50:55;;;;;;;;;;;;;;;21.60;32.73;99848.91;102784;1290;63241;-78
2024/03/24 03:53:25;;;;;;;;;;;;;;;21.61;32.72;99847.64;102677;1295;62249;-80
2024/03/24 03:55:51;;;;;;;;;;;;;;;21.60;32.69;99853.58;102692;1294;75296;-79
2024/03/24 03:58:22;;;;;;;;;;;;;;;21.60;32.74;99858.80;102798;1292;62293;-79
2024/03/24 04:00:48;;;;;;;;;;;;;;;21.60;32.81;99867.23;102649;1297;62202;-79
2024/03/24 04:03:13;;;;;;;;;;;;;;;21.60;32.83;99862.97;102613;1297;62173;-79
2024/03/24 04:05:39;;;;;;;;;;;;;;;21.60;32.73;99869.75;102718;1292;63345;-79
2024/03/24 04:08:06;;;;;;;;;;;;;;;21.59;32.75;99866.39;102758;1292;62191;-80
2024/03/24 04:10:31;;;;;;;;;;;;;;;21.59;32.68;99865.14;102704;1297;62225;-79
2024/03/24 04:12:57;;;;;;;;;;;;;;;21.59;32.75;99856.02;102789;1291;62243;-81
2024/03/24 04:15:22;;;;;;;;;;;;;;;21.58;32.79;99854.11;102692;1292;72041;-80
2024/03/24 04:17:48;;;;;;;;;;;;;;;21.59;32.67;99858.73;102694;1294;63497;-80
2024/03/24 04:20:14;;;;;;;;;;;;;;;21.58;32.69;99851.96;102781;1290;62628;-78
2024/03/24 04:22:41;;;;;;;;;;;;;;;21.58;32.75;99844.30;102729;1292;62155;-78
2024/03/24 04:25:06;;;;;;;;;;;;;;;21.58;32.73;99832.69;102703;1292;62217;-80
2024/03/24 04:27:32;;;;;;;;;;;;;;;21.58;32.61;99828.96;102644;1295;62649;-79
2024/03/24 04:29:57;;;;;;;;;;;;;;;21.57;32.68;99824.48;102752;1297;62225;-80
2024/03/24 04:32:23;;;;;;;;;;;;;;;21.57;32.58;99831.29;102656;1291;62253;-79
2024/03/24 04:34:48;;;;;;;;;;;;;;;21.57;32.89;99831.84;102721;1292;63385;-78
2024/03/24 04:37:14;;;;;;;;;;;;;;;21.57;32.62;99825.77;102626;1292;63459;-80
2024/03/24 04:39:40;;;;;;;;;;;;;;;21.57;32.63;99831.72;102677;1293;63484;-79
2024/03/24 04:42:05;;;;;;;;;;;;;;;21.57;32.65;99852.64;102760;1297;63499;-79
2024/03/24 04:44:31;;;;;;;;;;;;;;;21.57;32.66;99861.27;102731;1291;62095;-79
2024/03/24 04:46:56;;;;;;;;;;;;;;;21.56;32.80;99850.50;102729;1291;63248;-79
2024/03/24 04:49:22;;;;;;;;;;;;;;;21.56;32.66;99837.45;102734;1292;62229;-79
2024/03/24 04:51:47;;;;;;;;;;;;;;;21.56;32.62;99837.28;102698;1291;62762;-80
2024/03/24 04:54:13;;;;;;;;;;;;;;;21.56;32.76;99845.91;102777;1294;62188;-78
2024/03/24 04:56:38;;;;;;;;;;;;;;;21.55;32.63;99850.98;102717;1292;63378;-78
2024/03/24 04:59:04;;;;;;;;;;;;;;;21.56;32.76;99856.15;102691;1291;63370;-80
2024/03/24 05:01:30;;;;;;;;;;;;;;;21.55;32.66;99851.70;102700;1295;62191;-79
2024/03/24 05:03:55;;;;;;;;;;;;;;;21.56;32.86;99850.77;102668;1292;62303;-82
2024/03/24 05:06:21;;;;;;;;;;;;;;;21.55;32.64;99847.04;102763;1292;63777;-79
2024/03/24 05:08:47;;;;;;;;;;;;;;;21.56;32.70;99846.48;102695;1291;62350;-81
2024/03/24 05:11:12;;;;;;;;;;;;;;;21.55;32.75;99852.41;102719;1291;62391;-79
2024/03/24 05:13:38;;;;;;;;;;;;;;;21.55;32.79;99854.05;102708;1292;63374;-79
2024/03/24 05:16:08;;;;;;;;;;;;;;;21.55;32.55;99852.46;102712;1292;63383;-79
2024/03/24 05:18:36;;;;;;;;;;;;;;;21.55;32.75;99851.58;102804;1292;62142;-79
2024/03/24 05:21:04;;;;;;;;;;;;;;;21.54;32.74;99850.90;102648;1291;62156;-82
2024/03/24 05:23:29;;;;;;;;;;;;;;;21.55;32.70;99855.52;102722;1296;72394;-77
2024/03/24 05:25:55;;;;;;;;;;;;;;;21.54;32.76;99853.61;102727;1292;62202;-80
2024/03/24 05:28:21;;;;;;;;;;;;;;;21.53;32.63;99848.64;102741;1294;63392;-79
2024/03/24 05:30:47;;;;;;;;;;;;;;;21.53;32.64;99847.92;102718;1291;63469;-80
2024/03/24 05:33:13;;;;;;;;;;;;;;;21.54;32.81;99849.16;102724;1291;62627;-79
2024/03/24 05:35:38;;;;;;;;;;;;;;;21.53;32.66;99854.40;102727;1291;62420;-80
2024/03/24 05:38:05;;;;;;;;;;;;;;;21.53;32.68;99856.77;102729;1292;75261;-78
2024/03/24 05:40:30;;;;;;;;;;;;;;;21.52;32.60;99853.19;102738;1294;62204;-79
2024/03/24 05:42:56;;;;;;;;;;;;;;;21.52;32.66;99856.40;102708;1291;63352;-79
2024/03/24 05:45:21;;;;;;;;;;;;;;;21.52;32.58;99852.31;102705;1294;62191;-81
2024/03/24 05:47:48;;;;;;;;;;;;;;;21.52;32.63;99847.16;102736;1292;62163;-79
2024/03/24 05:50:13;;;;;;;;;;;;;;;21.52;32.67;99843.03;102639;1291;75289;-79
2024/03/24 05:52:41;;;;;;;;;;;;;;;21.52;32.61;99850.38;102738;1292;63351;-80
2024/03/24 05:55:07;;;;;;;;;;;;;;;21.52;32.63;99848.60;102792;1291;62175;-81
2024/03/24 05:57:33;;;;;;;;;;;;;;;21.52;32.56;99840.91;102695;1295;63405;-79
2024/03/24 05:59:59;;;;;;;;;;;;;;;21.51;32.62;99839.50;102677;1294;62188;-79
2024/03/24 06:02:25;;;;;;;;;;;;;;;21.51;32.66;99836.30;102794;1291;62242;-79
2024/03/24 06:04:54;;;;;;;;;;;;;;;21.51;32.74;99843.09;102657;1292;62173;-79
2024/03/24 06:07:20;;;;;;;;;;;;;;;21.51;32.72;99835.44;102761;1292;62281;-80
2024/03/24 06:09:45;;;;;;;;;;;;;;;21.51;32.68;99836.33;102737;1292;63309;-80
2024/03/24 06:12:11;;;;;;;;;;;;;;;21.51;32.75;99830.80;102674;1294;62123;-78
2024/03/24 06:14:37;;;;;;;;;;;;;;;21.50;32.57;99828.30;102708;1291;62223;-78
2024/03/24 06:17:04;;;;;;;;;;;;;;;21.51;32.66;99837.77;102812;1297;62250;-79
2024/03/24 06:19:29;;;;;;;;;;;;;;;21.50;32.65;99842.85;102720;1292;63449;-80
2024/03/24 06:21:56;;;;;;;;;;;;;;;21.50;32.67;99844.98;102693;1292;62264;-78
2024/03/24 06:24:21;;;;;;;;;;;;;;;21.50;32.58;99845.70;102952;1290;62112;-79
2024/03/24 06:26:47;;;;;;;;;;;;;;;21.50;32.60;99846.80;102709;1292;62386;-80
2024/03/24 06:29:12;;;;;;;;;;;;;;;21.49;32.60;99851.30;102741;1292;62654;-80
2024/03/24 06:31:38;;;;;;;;;;;;;;;21.49;32.66;99847.73;102701;1291;62220;-79
2024/03/24 06:34:06;;;;;;;;;;;;;;;21.50;32.67;99840.00;102815;1297;62213;-80
2024/03/24 06:36:32;;;;;;;;;;;;;;;21.49;32.60;99832.20;102693;1291;62233;-80
2024/03/24 06:38:58;;;;;;;;;;;;;;;21.49;32.76;99836.48;102742;1292;62197;-78
2024/03/24 06:41:24;;;;;;;;;;;;;;;21.49;32.61;99840.59;102758;1292;63398;-79
2024/03/24 06:43:50;;;;;;;;;;;;;;;21.49;32.66;99836.33;102726;1291;62558;-78
2024/03/24 06:46:16;;;;;;;;;;;;;;;21.48;32.62;99837.45;102705;1292;62201;-79
2024/03/24 06:48:42;;;;;;;;;;;;;;;21.49;32.59;99839.04;102780;1292;62188;-80
2024/03/24 06:51:08;;;;;;;;;;;;;;;21.48;32.52;99838.52;102710;1291;63186;-78
2024/03/24 06:53:33;;;;;;;;;;;;;;;21.48;32.59;99831.68;102771;1294;62197;-79
2024/03/24 06:55:59;;;;;;;;;;;;;;;21.48;32.67;99826.31;102692;1291;76113;-80
2024/03/24 06:58:25;;;;;;;;;;;;;;;21.48;32.72;99836.88;102728;1294;62242;-80
2024/03/24 07:00:51;;;;;;;;;;;;;;;21.49;32.60;99840.65;102717;1291;62195;-80
2024/03/24 07:03:17;;;;;;;;;;;;;;;21.49;32.63;99832.36;102713;1297;62720;-80
2024/03/24 07:05:42;;;;;;;;;;;;;;;21.49;32.67;99835.65;102678;1297;63231;-79
2024/03/24 07:08:08;;;;;;;;;;;;;;;21.48;32.60;99831.91;102744;1295;62303;-77
2024/03/24 07:10:33;;;;;;;;;;;;;;;21.48;32.76;99836.72;102674;1292;62259;-79
2024/03/24 07:12:59;;;;;;;;;;;;;;;21.48;32.66;99835.64;102646;1292;62319;-79
2024/03/24 07:15:25;;;;;;;;;;;;;;;21.49;32.69;99836.89;102821;1291;62210;-78
2024/03/24 07:17:52;;;;;;;;;;;;;;;21.48;32.61;99839.06;102649;1292;62220;-79
2024/03/24 07:20:18;;;;;;;;;;;;;;;21.48;32.69;99832.27;102673;1292;62575;-79
2024/03/24 07:22:43;;;;;;;;;;;;;;;21.48;32.57;99830.30;102722;1292;63398;-79
2024/03/24 07:25:10;;;;;;;;;;;;;;;21.48;32.71;99825.10;102664;1296;62185;-80
2024/03/24 07:27:36;;;;;;;;;;;;;;;21.48;32.57;99824.56;102641;1295;62209;-80
2024/03/24 07:30:02;;;;;;;;;;;;;;;21.48;32.72;99822.61;102737;1292;62200;-79
2024/03/24 07:32:27;;;;;;;;;;;;;;;21.48;32.70;99823.68;102756;1290;62118;-79
2024/03/24 07:34:53;;;;;;;;;;;;;;;21.48;32.71;99823.88;102624;1291;62282;-79
2024/03/24 07:37:19;;;;;;;;;;;;;;;21.48;32.71;99826.93;102662;1295;62329;-79
2024/03/24 07:39:45;;;;;;;;;;;;;;;21.48;32.73;99827.27;102695;1291;62109;-78
2024/03/24 07:42:11;;;;;;;;;;;;;;;21.48;32.75;99828.18;102638;1292;62358;-78
2024/03/24 07:44:36;;;;;;;;;;;;;;;21.48;32.76;99835.16;102800;1291;62266;-80
2024/03/24 07:47:04;;;;;;;;;;;;;;;21.48;32.76;99839.09;102717;1291;63703;-79
2024/03/24 07:49:33;;;;;;;;;;;;;;;21.48;32.73;99839.80;102730;1291;73280;-79
2024/03/24 07:51:59;;;;;;;;;;;;;;;21.48;32.87;99834.61;102701;1294;75407;-79
2024/03/24 07:54:24;;;;;;;;;;;;;;;21.48;32.87;99837.27;102735;1291;62203;-81
2024/03/24 07:56:50;;;;;;;;;;;;;;;21.48;32.73;99837.25;102703;1291;63353;-80
2024/03/24 07:59:17;;;;;;;;;;;;;;;21.48;32.78;99836.39;102830;1291;62206;-79
2024/03/24 08:01:45;;;;;;;;;;;;;;;21.48;32.96;99832.45;102641;1295;62175;-81
2024/03/24 08:04:11;;;;;;;;;;;;;;;21.49;32.76;99832.92;102720;1292;62223;-79
2024/03/24 08:06:37;;;;;;;;;;;;;;;21.48;32.77;99839.23;102738;1292;62648;-79
2024/03/24 08:09:03;;;;;;;;;;;;;;;21.49;32.99;99840.61;102627;1297;62220;-79
2024/03/24 08:11:29;;;;;;;;;;;;;;;21.49;32.90;99827.92;102692;1296;62086;-79
2024/03/24 08:13:54;;;;;;;;;;;;;;;21.49;32.92;99825.36;102917;1292;62117;-79
2024/03/24 08:16:20;;;;;;;;;;;;;;;21.50;33.04;99821.71;102731;1291;63462;-80
2024/03/24 08:18:46;;;;;;;;;;;;;;;21.50;33.03;99820.11;102637;1291;62143;-80
2024/03/24 08:21:11;;;;;;;;;;;;;;;21.50;33.06;99817.58;102696;1297;62725;-80
2024/03/24 08:23:38;;;;;;;;;;;;;;;21.50;32.97;99812.40;102736;1291;63455;-80
2024/03/24 08:26:04;;;;;;;;;;;;;;;21.50;33.02;99810.39;102734;1292;62179;-80
2024/03/24 08:28:29;;;;;;;;;;;;;;;21.51;32.81;99805.73;102701;1292;62760;-79
2024/03/24 08:30:56;;;;;;;;;;;;;;;21.51;33.01;99811.23;102712;1291;63336;-79
2024/03/24 08:33:22;;;;;;;;;;;;;;;21.51;32.92;99817.50;102680;1291;62165;-81
2024/03/24 08:35:47;;;;;;;;;;;;;;;21.51;32.82;99809.77;102799;1291;62347;-78
2024/03/24 08:38:13;;;;;;;;;;;;;;;21.51;32.85;99802.98;102672;1292;62182;-80
2024/03/24 08:40:39;;;;;;;;;;;;;;;21.52;32.92;99799.36;102699;1292;62195;-79
2024/03/24 08:43:04;;;;;;;;;;;;;;;21.52;32.91;99793.79;102702;1291;62294;-80
2024/03/24 08:45:30;;;;;;;;;;;;;;;21.52;32.89;99790.38;102696;1291;62828;-79
2024/03/24 08:47:55;;;;;;;;;;;;;;;21.52;33.02;99789.98;102692;1292;62907;-80
2024/03/24 08:50:21;;;;;;;;;;;;;;;21.53;32.80;99788.17;103077;1290;63173;-77
2024/03/24 08:52:47;;;;;;;;;;;;;;;21.53;32.88;99792.80;102817;1291;62207;-80
2024/03/24 08:55:13;;;;;;;;;;;;;;;21.54;32.92;99790.09;102681;1292;62175;-79
2024/03/24 08:57:41;;;;;;;;;;;;;;;21.54;32.90;99787.02;102739;1291;62254;-78
2024/03/24 09:00:09;;;;;;;;;;;;;;;21.54;32.95;99788.42;102757;1292;62289;-79
2024/03/24 09:02:35;;;;;;;;;;;;;;;21.55;32.98;99781.93;102744;1291;62201;-79
2024/03/24 09:05:00;;;;;;;;;;;;;;;21.55;32.83;99778.66;102840;1292;62281;-79
2024/03/24 09:07:26;;;;;;;;;;;;;;;21.56;33.00;99774.64;102630;1293;62181;-82
2024/03/24 09:09:51;;;;;;;;;;;;;;;21.56;32.81;99767.73;102666;1292;63321;-80
2024/03/24 09:12:17;;;;;;;;;;;;;;;21.56;32.88;99763.92;102727;1294;62188;-80
2024/03/24 09:14:43;;;;;;;;;;;;;;;21.56;32.89;99758.33;102743;1292;62189;-81
2024/03/24 09:17:09;;;;;;;;;;;;;;;21.57;32.89;99755.25;102689;1294;62194;-80
2024/03/24 09:19:35;;;;;;;;;;;;;;;21.57;32.87;99752.56;102746;1291;62300;-79
2024/03/24 09:22:01;;;;;;;;;;;;;;;21.57;32.88;99748.95;102719;1292;62244;-79
2024/03/24 09:24:26;;;;;;;;;;;;;;;21.58;33.01;99744.44;102707;1291;63800;-81
2024/03/24 09:26:54;;;;;;;;;;;;;;;21.58;32.98;99741.21;102713;1292;62310;-79
2024/03/24 09:29:20;;;;;;;;;;;;;;;21.58;32.90;99746.41;102720;1292;62181;-79
2024/03/24 09:31:45;;;;;;;;;;;;;;;21.58;33.02;99744.94;102670;1292;62211;-80
2024/03/24 09:34:11;;;;;;;;;;;;;;;21.58;32.89;99740.08;102725;1291;63257;-79
2024/03/24 09:36:36;;;;;;;;;;;;;;;21.58;33.01;99740.95;102751;1292;63498;-79
2024/03/24 09:39:03;;;;;;;;;;;;;;;21.59;32.95;99733.38;102710;1294;62187;-82
2024/03/24 09:41:28;;;;;;;;;;;;;;;21.59;32.97;99726.41;102763;1292;76178;-80
2024/03/24 09:43:54;;;;;;;;;;;;;;;21.59;32.94;99726.00;102741;1294;62187;-80
2024/03/24 09:46:20;;;;;;;;;;;;;;;21.60;33.07;99722.91;102758;1292;63373;-79
2024/03/24 09:48:46;;;;;;;;;;;;;;;21.60;33.11;99720.73;102847;1295;62087;-81
2024/03/24 09:51:13;;;;;;;;;;;;;;;21.60;33.02;99719.82;102658;1292;62220;-79
2024/03/24 09:53:39;;;;;;;;;;;;;;;21.60;33.00;99717.32;102730;1292;62142;-79
2024/03/24 09:56:05;;;;;;;;;;;;;;;21.61;32.99;99710.65;102692;1291;62303;-81
2024/03/24 09:58:32;;;;;;;;;;;;;;;21.61;33.00;99709.91;102697;1292;62262;-79
2024/03/24 10:00:58;;;;;;;;;;;;;;;21.62;33.06;99709.69;102615;1299;62206;-80
2024/03/24 10:03:23;;;;;;;;;;;;;;;21.63;33.04;99704.09;102766;1291;62809;-79
2024/03/24 10:05:49;;;;;;;;;;;;;;;21.62;33.05;99698.23;102679;1291;62174;-79
2024/03/24 10:08:14;;;;;;;;;;;;;;;21.63;33.16;99694.77;102729;1292;62287;-79
2024/03/24 10:10:40;;;;;;;;;;;;;;;21.63;33.12;99691.01;102705;1292;62218;-80
2024/03/24 10:13:08;;;;;;;;;;;;;;;21.63;33.09;99688.48;102950;1294;62226;-79
2024/03/24 10:15:33;;;;;;;;;;;;;;;21.64;33.10;99687.50;102712;1292;62494;-81
2024/03/24 10:18:24;;;;;;;;;;;;;;;;;;;;;
2024/03/24 10:20:50;;;;;;;;;;;;;;;21.64;33.15;99675.83;102730;1294;72239;-79
2024/03/24 10:23:16;;;;;;;;;;;;;;;21.65;33.12;99677.39;102728;1292;62277;-81
2024/03/24 10:25:41;;;;;;;;;;;;;;;21.65;33.11;99679.90;102751;1292;62276;-80
2024/03/24 10:28:08;;;;;;;;;;;;;;;21.65;33.13;99679.67;102776;1292;62261;-79
2024/03/24 10:30:33;;;;;;;;;;;;;;;21.65;33.13;99676.61;102730;1294;62233;-81
2024/03/24 10:32:59;;;;;;;;;;;;;;;21.66;33.10;99676.05;102763;1292;63464;-79
2024/03/24 10:35:24;;;;;;;;;;;;;;;21.65;32.93;99669.45;102694;1296;75036;-79
2024/03/24 10:37:50;;;;;;;;;;;;;;;21.66;33.05;99664.03;102711;1292;62169;-80
2024/03/24 10:40:16;;;;;;;;;;;;;;;21.66;33.09;99660.61;102745;1291;62195;-80
2024/03/24 10:42:54;;;;;;;;;;;;;;;21.66;33.04;99657.02;102690;1290;62109;-80
2024/03/24 10:45:24;;;;;;;;;;;;;;;21.67;32.99;99653.20;102701;1291;76250;-79
2024/03/24 10:47:53;;;;;;;;;;;;;;;21.67;33.16;99647.30;102731;1292;62412;-80
2024/03/24 10:50:19;;;;;;;;;;;;;;;21.67;33.11;99639.57;102756;1291;62214;-79
2024/03/24 10:52:44;;;;;;;;;;;;;;;21.67;33.20;99634.88;102706;1292;63499;-79
2024/03/24 10:55:10;;;;;;;;;;;;;;;21.68;33.12;99634.15;102752;1291;62599;-79
2024/03/24 10:57:40;;;;;;;;;;;;;;;21.68;33.19;99629.29;102818;1290;62121;-80
2024/03/24 11:00:06;;;;;;;;;;;;;;;21.68;33.13;99618.20;102650;1296;62133;-79
2024/03/24 11:02:32;;;;;;;;;;;;;;;21.68;33.13;99613.14;102709;1292;62238;-79
2024/03/24 11:04:57;;;;;;;;;;;;;;;21.68;33.23;99608.50;102789;1292;63540;-78
2024/03/24 11:07:23;;;;;;;;;;;;;;;21.69;33.21;99605.23;102734;1292;62149;-81
2024/03/24 11:09:51;;;;;;;;;;;;;;;21.68;33.11;99600.23;102912;1291;62085;-79
2024/03/24 11:12:16;;;;;;;;;;;;;;;21.68;33.15;99595.02;102850;1292;63401;-80
2024/03/24 11:14:42;;;;;;;;;;;;;;;21.69;33.22;99597.35;102748;1291;62182;-78
2024/03/24 11:17:07;;;;;;;;;;;;;;;21.69;33.16;99594.60;102721;1291;62298;-81
2024/03/24 11:19:33;;;;;;;;;;;;;;;21.69;33.23;99586.21;102724;1291;62209;-79
2024/03/24 11:21:59;;;;;;;;;;;;;;;21.69;33.15;99582.41;102783;1292;63503;-79
2024/03/24 11:24:26;;;;;;;;;;;;;;;21.69;33.25;99582.42;102797;1292;63469;-79
2024/03/24 11:26:51;;;;;;;;;;;;;;;21.69;33.23;99579.02;103328;1291;62247;-79
2024/03/24 11:29:36;;;;;;;;;;;;;;;21.69;33.29;99578.45;102999;1291;62201;-79
2024/03/24 11:32:01;;;;;;;;;;;;;;;21.70;33.35;99576.95;102863;1291;62198;-78
2024/03/24 11:34:27;;;;;;;;;;;;;;;21.70;33.29;99569.27;102847;1291;63474;-79
2024/03/24 11:36:52;;;;;;;;;;;;;;;21.71;33.28;99564.04;102836;1294;62252;-78
2024/03/24 11:39:19;;;;;;;;;;;;;;;21.71;33.33;99563.13;102830;1292;62140;-81
2024/03/24 11:41:51;;;;;;;;;;;;;;;21.71;33.25;99571.36;102911;1291;63487;-79
2024/03/24 11:44:16;;;;;;;;;;;;;;;21.71;33.15;99561.33;102645;1290;72578;-78
2024/03/24 11:46:42;;;;;;;;;;;;;;;21.71;33.23;99557.16;102690;1292;62906;-78
2024/03/24 11:49:10;;;;;;;;;;;;;;;21.71;33.19;99554.11;102713;1295;63401;-79
2024/03/24 11:51:36;;;;;;;;;;;;;;;21.71;33.27;99553.21;102758;1291;62227;-81
2024/03/24 11:54:01;;;;;;;;;;;;;;;21.71;33.25;99549.48;102689;1291;62258;-80
2024/03/24 11:56:27;;;;;;;;;;;;;;;21.72;33.24;99554.41;102644;1292;62252;-80
2024/03/24 11:58:54;;;;;;;;;;;;;;;21.71;33.19;99542.30;102704;1292;63437;-80
2024/03/24 12:01:20;;;;;;;;;;;;;;;21.72;33.32;99537.06;102889;1291;62845;-79
2024/03/24 12:03:46;;;;;;;;;;;;;;;21.72;33.21;99534.73;102671;1297;62286;-79
2024/03/24 12:06:13;;;;;;;;;;;;;;;21.72;33.28;99532.01;102707;1291;62368;-79
2024/03/24 12:08:39;;;;;;;;;;;;;;;21.72;33.29;99523.98;102714;1292;63451;-79
2024/03/24 12:11:05;;;;;;;;;;;;;;;21.72;33.19;99528.08;102772;1292;62214;-79
2024/03/24 12:13:30;;;;;;;;;;;;;;;21.72;33.27;99524.34;102770;1292;62209;-78
2024/03/24 12:15:56;;;;;;;;;;;;;;;21.72;33.31;99520.35;102662;1292;63472;-79
2024/03/24 12:18:21;;;;;;;;;;;;;;;21.72;33.32;99523.61;102689;1292;62711;-79
2024/03/24 12:20:50;;;;;;;;;;;;;;;21.72;33.16;99524.48;102633;1295;62627;-80
2024/03/24 12:23:16;;;;;;;;;;;;;;;21.72;33.30;99525.58;102744;1291;63388;-80
2024/03/24 12:25:45;;;;;;;;;;;;;;;21.72;33.31;99517.70;102717;1295;62194;-80
2024/03/24 12:28:17;;;;;;;;;;;;;;;21.72;33.25;99517.48;102702;1292;76484;-79
2024/03/24 12:30:52;;;;;;;;;;;;;;;21.73;33.40;99518.21;102743;1292;63425;-80